Time;durP1;ratioP1;P1;durP2;ratioP2;P2;SDS_P1;SDS_P2;PMS_P1;PMS_P2;Temp;Humidity;BMP_temperature;BMP_pressure;BME280_temperature;BME280_humidity;BME280_pressure;Samples;Min_cycle;Max_cycle;Signal;HPM_P1;HPM_P2
2019/05/06 00:00:20;;;;;;;8.3;7.349999;;;;;;;3.86;72.26074;95203.53;;;;
2019/05/06 00:01:22;;;;;;;8.3;7.349999;;;;;;;3.86;72.26074;95203.53;;;;
2019/05/06 00:02:23;;;;;;;8.3;7.349999;;;;;;;3.86;72.26074;95203.53;;;;
2019/05/06 00:03:24;;;;;;;8.3;7.349999;;;;;;;3.86;72.26074;95203.53;;;;
2019/05/06 00:04:25;;;;;;;8.3;7.349999;;;;;;;3.86;72.26074;95203.53;;;;
2019/05/06 00:05:26;;;;;;;8.3;7.349999;;;;;;;3.86;72.26074;95203.53;;;;
2019/05/06 00:06:27;;;;;;;8.3;7.349999;;;;;;;3.86;72.26074;95203.53;;;;
2019/05/06 00:07:28;;;;;;;8.949999;8.049999;;;;;;;3.73;72.42871;95199.85;;;;
2019/05/06 00:08:29;;;;;;;8.949999;8.049999;;;;;;;3.73;72.42871;95199.85;;;;
2019/05/06 00:09:30;;;;;;;8.949999;8.049999;;;;;;;3.73;72.42871;95199.85;;;;
2019/05/06 00:10:31;;;;;;;8.949999;8.049999;;;;;;;3.73;72.42871;95199.85;;;;
2019/05/06 00:11:33;;;;;;;8.949999;8.049999;;;;;;;3.73;72.42871;95199.85;;;;
2019/05/06 00:12:34;;;;;;;8.949999;8.049999;;;;;;;3.73;72.42871;95199.85;;;;
2019/05/06 00:13:35;;;;;;;8.949999;8.049999;;;;;;;3.73;72.42871;95199.85;;;;
2019/05/06 00:14:36;;;;;;;8.949999;8.049999;;;;;;;3.73;72.42871;95199.85;;;;
2019/05/06 00:15:37;;;;;;;8.949999;8.049999;;;;;;;3.73;72.42871;95199.85;;;;
2019/05/06 00:16:38;;;;;;;8.949999;8.049999;;;;;;;3.73;72.42871;95199.85;;;;
2019/05/06 00:17:39;;;;;;;8.949999;8.049999;;;;;;;3.73;72.42871;95199.85;;;;
2019/05/06 00:18:40;;;;;;;9.1;8.2;;;;;;;3.59;72.85742;95203.05;;;;
2019/05/06 00:19:41;;;;;;;9.1;8.2;;;;;;;3.59;72.85742;95203.05;;;;
2019/05/06 00:20:43;;;;;;;9.1;8.2;;;;;;;3.59;72.85742;95203.05;;;;
2019/05/06 00:21:44;;;;;;;9.1;8.2;;;;;;;3.59;72.85742;95203.05;;;;
2019/05/06 00:22:45;;;;;;;9.1;8.2;;;;;;;3.59;72.85742;95203.05;;;;
2019/05/06 00:23:49;;;;;;;9.1;8.2;;;;;;;3.59;72.85742;95203.05;;;;
2019/05/06 00:24:57;;;;;;;9.1;8.2;;;;;;;3.59;72.85742;95203.05;;;;
2019/05/06 00:26:13;;;;;;;9.1;8.2;;;;;;;3.59;72.85742;95203.05;;;;
2019/05/06 00:27:20;;;;;;;9.1;8.2;;;;;;;3.59;72.85742;95203.05;;;;
2019/05/06 00:28:25;;;;;;;9.1;8.2;;;;;;;3.59;72.85742;95203.05;;;;
2019/05/06 00:29:29;;;;;;;9.35;8.099999;;;;;;;3.52;73.12891;95199.1;;;;
2019/05/06 00:30:30;;;;;;;9.35;8.099999;;;;;;;3.52;73.12891;95199.1;;;;
2019/05/06 00:31:31;;;;;;;9.35;8.099999;;;;;;;3.52;73.12891;95199.1;;;;
2019/05/06 00:32:32;;;;;;;9.35;8.099999;;;;;;;3.52;73.12891;95199.1;;;;
2019/05/06 00:33:33;;;;;;;9.35;8.099999;;;;;;;3.52;73.12891;95199.1;;;;
2019/05/06 00:34:34;;;;;;;9.35;8.099999;;;;;;;3.52;73.12891;95199.1;;;;
2019/05/06 00:35:35;;;;;;;9.35;8.099999;;;;;;;3.52;73.12891;95199.1;;;;
2019/05/06 00:36:36;;;;;;;9.35;8.099999;;;;;;;3.52;73.12891;95199.1;;;;
2019/05/06 00:37:37;;;;;;;9.35;8.099999;;;;;;;3.52;73.12891;95199.1;;;;
2019/05/06 00:38:39;;;;;;;9.35;8.099999;;;;;;;3.52;73.12891;95199.1;;;;
2019/05/06 00:39:53;;;;;;;9.749999;8.749999;;;;;;;3.61;73.37695;95196.17;;;;
2019/05/06 00:40:58;;;;;;;9.749999;8.749999;;;;;;;3.61;73.37695;95196.17;;;;
2019/05/06 00:42:04;;;;;;;9.749999;8.749999;;;;;;;3.61;73.37695;95196.17;;;;
2019/05/06 00:43:07;;;;;;;9.749999;8.749999;;;;;;;3.61;73.37695;95196.17;;;;
2019/05/06 00:44:08;;;;;;;9.749999;8.749999;;;;;;;3.61;73.37695;95196.17;;;;
2019/05/06 00:45:09;;;;;;;9.749999;8.749999;;;;;;;3.61;73.37695;95196.17;;;;
2019/05/06 00:46:10;;;;;;;9.749999;8.749999;;;;;;;3.61;73.37695;95196.17;;;;
2019/05/06 00:47:11;;;;;;;9.749999;8.749999;;;;;;;3.61;73.37695;95196.17;;;;
2019/05/06 00:48:12;;;;;;;9.749999;8.749999;;;;;;;3.61;73.37695;95196.17;;;;
2019/05/06 00:49:13;;;;;;;9.749999;8.749999;;;;;;;3.61;73.37695;95196.17;;;;
2019/05/06 00:50:14;;;;;;;10.5;9.35;;;;;;;3.52;73.64551;95197.76;;;;
2019/05/06 00:51:15;;;;;;;10.5;9.35;;;;;;;3.52;73.64551;95197.76;;;;
2019/05/06 00:52:16;;;;;;;10.5;9.35;;;;;;;3.52;73.64551;95197.76;;;;
2019/05/06 00:53:19;;;;;;;10.5;9.35;;;;;;;3.52;73.64551;95197.76;;;;
2019/05/06 00:54:22;;;;;;;10.5;9.35;;;;;;;3.52;73.64551;95197.76;;;;
2019/05/06 00:55:23;;;;;;;10.5;9.35;;;;;;;3.52;73.64551;95197.76;;;;
2019/05/06 00:56:24;;;;;;;10.5;9.35;;;;;;;3.52;73.64551;95197.76;;;;
2019/05/06 00:57:53;;;;;;;10.5;9.35;;;;;;;3.52;73.64551;95197.76;;;;
2019/05/06 00:58:54;;;;;;;10.5;9.35;;;;;;;3.52;73.64551;95197.76;;;;
2019/05/06 00:59:56;;;;;;;10.5;9.35;;;;;;;3.52;73.64551;95197.76;;;;
2019/05/06 01:00:57;;;;;;;11.45;9.450001;;;;;;;3.48;73.79688;95204.08;;;;
2019/05/06 01:01:58;;;;;;;11.45;9.450001;;;;;;;3.48;73.79688;95204.08;;;;
2019/05/06 01:02:59;;;;;;;11.45;9.450001;;;;;;;3.48;73.79688;95204.08;;;;
2019/05/06 01:04:00;;;;;;;11.45;9.450001;;;;;;;3.48;73.79688;95204.08;;;;
2019/05/06 01:05:01;;;;;;;11.45;9.450001;;;;;;;3.48;73.79688;95204.08;;;;
2019/05/06 01:06:02;;;;;;;11.45;9.450001;;;;;;;3.48;73.79688;95204.08;;;;
2019/05/06 01:07:04;;;;;;;11.45;9.450001;;;;;;;3.48;73.79688;95204.08;;;;
2019/05/06 01:08:05;;;;;;;11.45;9.450001;;;;;;;3.48;73.79688;95204.08;;;;
2019/05/06 01:09:11;;;;;;;11.45;9.450001;;;;;;;3.48;73.79688;95204.08;;;;
2019/05/06 01:10:12;;;;;;;11.45;9.450001;;;;;;;3.48;73.79688;95204.08;;;;
2019/05/06 01:11:13;;;;;;;10.2;9.150001;;;;;;;3.39;73.98047;95208.75;;;;
2019/05/06 01:12:14;;;;;;;10.2;9.150001;;;;;;;3.39;73.98047;95208.75;;;;
2019/05/06 01:14:23;;;;;;;10.2;9.150001;;;;;;;3.39;73.98047;95208.75;;;;
2019/05/06 01:15:25;;;;;;;10.2;9.150001;;;;;;;3.39;73.98047;95208.75;;;;
2019/05/06 01:16:27;;;;;;;10.2;9.150001;;;;;;;3.39;73.98047;95208.75;;;;
2019/05/06 01:17:28;;;;;;;10.2;9.150001;;;;;;;3.39;73.98047;95208.75;;;;
2019/05/06 01:18:29;;;;;;;10.2;9.150001;;;;;;;3.39;73.98047;95208.75;;;;
2019/05/06 01:19:30;;;;;;;10.2;9.150001;;;;;;;3.39;73.98047;95208.75;;;;
2019/05/06 01:20:31;;;;;;;10.2;9.150001;;;;;;;3.39;73.98047;95208.75;;;;
2019/05/06 01:21:33;;;;;;;10.2;9.150001;;;;;;;3.39;73.98047;95208.75;;;;
2019/05/06 01:22:34;;;;;;;9.85;8.749999;;;;;;;3.4;74.04688;95212.13;;;;
2019/05/06 01:23:35;;;;;;;9.85;8.749999;;;;;;;3.4;74.04688;95212.13;;;;
2019/05/06 01:24:38;;;;;;;9.85;8.749999;;;;;;;3.4;74.04688;95212.13;;;;
2019/05/06 01:25:39;;;;;;;9.85;8.749999;;;;;;;3.4;74.04688;95212.13;;;;
2019/05/06 01:26:40;;;;;;;9.85;8.749999;;;;;;;3.4;74.04688;95212.13;;;;
2019/05/06 01:27:41;;;;;;;9.85;8.749999;;;;;;;3.4;74.04688;95212.13;;;;
2019/05/06 01:28:43;;;;;;;9.85;8.749999;;;;;;;3.4;74.04688;95212.13;;;;
2019/05/06 01:29:44;;;;;;;9.85;8.749999;;;;;;;3.4;74.04688;95212.13;;;;
2019/05/06 01:30:45;;;;;;;9.85;8.749999;;;;;;;3.4;74.04688;95212.13;;;;
2019/05/06 01:31:46;;;;;;;9.85;8.749999;;;;;;;3.4;74.04688;95212.13;;;;
2019/05/06 01:32:47;;;;;;;9.95;8.6;;;;;;;3.17;73.97656;95221.3;;;;
2019/05/06 01:33:48;;;;;;;9.95;8.6;;;;;;;3.17;73.97656;95221.3;;;;
2019/05/06 01:34:49;;;;;;;9.95;8.6;;;;;;;3.17;73.97656;95221.3;;;;
2019/05/06 01:35:50;;;;;;;9.95;8.6;;;;;;;3.17;73.97656;95221.3;;;;
2019/05/06 01:36:52;;;;;;;9.95;8.6;;;;;;;3.17;73.97656;95221.3;;;;
2019/05/06 01:43:05;;;;;;;9.95;8.6;;;;;;;3.17;73.97656;95221.3;;;;
2019/05/06 01:44:06;;;;;;;9.95;8.6;;;;;;;3.17;73.97656;95221.3;;;;
2019/05/06 01:45:07;;;;;;;9.95;8.6;;;;;;;3.17;73.97656;95221.3;;;;
2019/05/06 01:46:08;;;;;;;9.95;8.6;;;;;;;3.17;73.97656;95221.3;;;;
2019/05/06 01:47:09;;;;;;;9.95;8.6;;;;;;;3.17;73.97656;95221.3;;;;
2019/05/06 01:48:10;;;;;;;9.95;8.6;;;;;;;3.17;73.97656;95221.3;;;;
2019/05/06 01:49:11;;;;;;;9.95;8.6;;;;;;;3.17;73.97656;95221.3;;;;
2019/05/06 01:50:13;;;;;;;9.95;8.6;;;;;;;3.17;73.97656;95221.3;;;;
2019/05/06 01:51:14;;;;;;;9.95;8.6;;;;;;;3.17;73.97656;95221.3;;;;
2019/05/06 01:52:16;;;;;;;9.95;8.6;;;;;;;3.17;73.97656;95221.3;;;;
2019/05/06 01:53:17;;;;;;;9.95;8.6;;;;;;;3.17;73.97656;95221.3;;;;
2019/05/06 01:54:18;;;;;;;11.35;10.15;;;;;;;2.5;74.54199;95226.65;;;;
2019/05/06 01:55:19;;;;;;;11.35;10.15;;;;;;;2.5;74.54199;95226.65;;;;
2019/05/06 01:56:20;;;;;;;11.35;10.15;;;;;;;2.5;74.54199;95226.65;;;;
2019/05/06 01:57:21;;;;;;;11.35;10.15;;;;;;;2.5;74.54199;95226.65;;;;
2019/05/06 01:58:22;;;;;;;11.35;10.15;;;;;;;2.5;74.54199;95226.65;;;;
2019/05/06 01:59:24;;;;;;;11.35;10.15;;;;;;;2.5;74.54199;95226.65;;;;
2019/05/06 02:00:25;;;;;;;11.35;10.15;;;;;;;2.5;74.54199;95226.65;;;;
2019/05/06 02:01:26;;;;;;;11.35;10.15;;;;;;;2.5;74.54199;95226.65;;;;
2019/05/06 02:02:27;;;;;;;11.35;10.15;;;;;;;2.5;74.54199;95226.65;;;;
2019/05/06 02:03:28;;;;;;;11.35;10.15;;;;;;;2.5;74.54199;95226.65;;;;
2019/05/06 02:04:29;;;;;;;11.45;10.05;;;;;;;2.34;75.12305;95229.97;;;;
2019/05/06 02:05:30;;;;;;;11.45;10.05;;;;;;;2.34;75.12305;95229.97;;;;
2019/05/06 02:06:31;;;;;;;11.45;10.05;;;;;;;2.34;75.12305;95229.97;;;;
2019/05/06 02:07:32;;;;;;;11.45;10.05;;;;;;;2.34;75.12305;95229.97;;;;
2019/05/06 02:08:34;;;;;;;11.45;10.05;;;;;;;2.34;75.12305;95229.97;;;;
2019/05/06 02:09:35;;;;;;;11.45;10.05;;;;;;;2.34;75.12305;95229.97;;;;
2019/05/06 02:10:36;;;;;;;11.45;10.05;;;;;;;2.34;75.12305;95229.97;;;;
2019/05/06 02:11:37;;;;;;;11.45;10.05;;;;;;;2.34;75.12305;95229.97;;;;
2019/05/06 02:12:38;;;;;;;11.45;10.05;;;;;;;2.34;75.12305;95229.97;;;;
2019/05/06 02:13:39;;;;;;;11.45;10.05;;;;;;;2.34;75.12305;95229.97;;;;
2019/05/06 02:14:40;;;;;;;11.45;10.05;;;;;;;2.34;75.12305;95229.97;;;;
2019/05/06 02:15:41;;;;;;;12;9.600001;;;;;;;2.23;75.42773;95231.88;;;;
2019/05/06 02:16:42;;;;;;;12;9.600001;;;;;;;2.23;75.42773;95231.88;;;;
2019/05/06 02:17:43;;;;;;;12;9.600001;;;;;;;2.23;75.42773;95231.88;;;;
2019/05/06 02:18:44;;;;;;;12;9.600001;;;;;;;2.23;75.42773;95231.88;;;;
2019/05/06 02:19:45;;;;;;;12;9.600001;;;;;;;2.23;75.42773;95231.88;;;;
2019/05/06 02:20:47;;;;;;;12;9.600001;;;;;;;2.23;75.42773;95231.88;;;;
2019/05/06 02:21:53;;;;;;;12;9.600001;;;;;;;2.23;75.42773;95231.88;;;;
2019/05/06 02:22:59;;;;;;;12;9.600001;;;;;;;2.23;75.42773;95231.88;;;;
2019/05/06 02:24:08;;;;;;;12;9.600001;;;;;;;2.23;75.42773;95231.88;;;;
2019/05/06 02:25:13;;;;;;;12;9.600001;;;;;;;2.23;75.42773;95231.88;;;;
2019/05/06 02:26:15;;;;;;;11.75;10.1;;;;;;;2.24;75.52441;95241.93;;;;
2019/05/06 02:27:16;;;;;;;11.75;10.1;;;;;;;2.24;75.52441;95241.93;;;;
2019/05/06 02:28:17;;;;;;;11.75;10.1;;;;;;;2.24;75.52441;95241.93;;;;
2019/05/06 02:29:19;;;;;;;11.75;10.1;;;;;;;2.24;75.52441;95241.93;;;;
2019/05/06 02:30:31;;;;;;;11.75;10.1;;;;;;;2.24;75.52441;95241.93;;;;
2019/05/06 02:36:46;;;;;;;12.6;10.85;;;;;;;2.33;75.60547;95249.64;;;;
2019/05/06 02:37:47;;;;;;;12.6;10.85;;;;;;;2.33;75.60547;95249.64;;;;
2019/05/06 02:38:48;;;;;;;12.6;10.85;;;;;;;2.33;75.60547;95249.64;;;;
2019/05/06 02:39:49;;;;;;;12.6;10.85;;;;;;;2.33;75.60547;95249.64;;;;
2019/05/06 02:40:51;;;;;;;12.6;10.85;;;;;;;2.33;75.60547;95249.64;;;;
2019/05/06 02:41:52;;;;;;;12.6;10.85;;;;;;;2.33;75.60547;95249.64;;;;
2019/05/06 02:42:53;;;;;;;12.6;10.85;;;;;;;2.33;75.60547;95249.64;;;;
2019/05/06 02:43:54;;;;;;;12.6;10.85;;;;;;;2.33;75.60547;95249.64;;;;
2019/05/06 02:44:55;;;;;;;12.6;10.85;;;;;;;2.33;75.60547;95249.64;;;;
2019/05/06 02:45:56;;;;;;;12.6;10.85;;;;;;;2.33;75.60547;95249.64;;;;
2019/05/06 02:47:07;;;;;;;11.8;10.4;;;;;;;2.6;76.04883;95254.77;;;;
2019/05/06 02:48:14;;;;;;;11.8;10.4;;;;;;;2.6;76.04883;95254.77;;;;
2019/05/06 02:49:21;;;;;;;11.8;10.4;;;;;;;2.6;76.04883;95254.77;;;;
2019/05/06 02:50:23;;;;;;;11.8;10.4;;;;;;;2.6;76.04883;95254.77;;;;
2019/05/06 02:51:26;;;;;;;11.8;10.4;;;;;;;2.6;76.04883;95254.77;;;;
2019/05/06 02:52:27;;;;;;;11.8;10.4;;;;;;;2.6;76.04883;95254.77;;;;
2019/05/06 02:53:28;;;;;;;11.8;10.4;;;;;;;2.6;76.04883;95254.77;;;;
2019/05/06 02:54:29;;;;;;;11.8;10.4;;;;;;;2.6;76.04883;95254.77;;;;
2019/05/06 02:55:30;;;;;;;11.8;10.4;;;;;;;2.6;76.04883;95254.77;;;;
2019/05/06 02:56:31;;;;;;;11.8;10.4;;;;;;;2.6;76.04883;95254.77;;;;
2019/05/06 02:57:32;;;;;;;11.25;9.799999;;;;;;;2.7;76.05762;95258.47;;;;
2019/05/06 02:58:33;;;;;;;11.25;9.799999;;;;;;;2.7;76.05762;95258.47;;;;
2019/05/06 02:59:34;;;;;;;11.25;9.799999;;;;;;;2.7;76.05762;95258.47;;;;
2019/05/06 03:00:36;;;;;;;11.25;9.799999;;;;;;;2.7;76.05762;95258.47;;;;
2019/05/06 03:01:37;;;;;;;11.25;9.799999;;;;;;;2.7;76.05762;95258.47;;;;
2019/05/06 03:02:38;;;;;;;11.25;9.799999;;;;;;;2.7;76.05762;95258.47;;;;
2019/05/06 03:03:39;;;;;;;11.25;9.799999;;;;;;;2.7;76.05762;95258.47;;;;
2019/05/06 03:04:40;;;;;;;11.25;9.799999;;;;;;;2.7;76.05762;95258.47;;;;
2019/05/06 03:05:41;;;;;;;11.25;9.799999;;;;;;;2.7;76.05762;95258.47;;;;
2019/05/06 03:06:42;;;;;;;11.25;9.799999;;;;;;;2.7;76.05762;95258.47;;;;
2019/05/06 03:07:43;;;;;;;11.25;9.799999;;;;;;;2.7;76.05762;95258.47;;;;
2019/05/06 03:08:44;;;;;;;12;10.35;;;;;;;2.85;75.88379;95263.14;;;;
2019/05/06 03:09:45;;;;;;;12;10.35;;;;;;;2.85;75.88379;95263.14;;;;
2019/05/06 03:10:46;;;;;;;12;10.35;;;;;;;2.85;75.88379;95263.14;;;;
2019/05/06 03:11:47;;;;;;;12;10.35;;;;;;;2.85;75.88379;95263.14;;;;
2019/05/06 03:12:48;;;;;;;12;10.35;;;;;;;2.85;75.88379;95263.14;;;;
2019/05/06 03:13:49;;;;;;;12;10.35;;;;;;;2.85;75.88379;95263.14;;;;
2019/05/06 03:14:50;;;;;;;12;10.35;;;;;;;2.85;75.88379;95263.14;;;;
2019/05/06 03:15:52;;;;;;;12;10.35;;;;;;;2.85;75.88379;95263.14;;;;
2019/05/06 03:16:53;;;;;;;12;10.35;;;;;;;2.85;75.88379;95263.14;;;;
2019/05/06 03:17:54;;;;;;;12;10.35;;;;;;;2.85;75.88379;95263.14;;;;
2019/05/06 03:18:55;;;;;;;12.65;10.6;;;;;;;2.91;75.85254;95269.14;;;;
2019/05/06 03:19:56;;;;;;;12.65;10.6;;;;;;;2.91;75.85254;95269.14;;;;
2019/05/06 03:21:09;;;;;;;12.65;10.6;;;;;;;2.91;75.85254;95269.14;;;;
2019/05/06 03:22:32;;;;;;;12.65;10.6;;;;;;;2.91;75.85254;95269.14;;;;
2019/05/06 03:23:37;;;;;;;12.65;10.6;;;;;;;2.91;75.85254;95269.14;;;;
2019/05/06 03:24:44;;;;;;;12.65;10.6;;;;;;;2.91;75.85254;95269.14;;;;
2019/05/06 03:25:45;;;;;;;12.65;10.6;;;;;;;2.91;75.85254;95269.14;;;;
2019/05/06 03:26:46;;;;;;;12.65;10.6;;;;;;;2.91;75.85254;95269.14;;;;
2019/05/06 03:27:48;;;;;;;12.65;10.6;;;;;;;2.91;75.85254;95269.14;;;;
2019/05/06 03:28:49;;;;;;;12.65;10.6;;;;;;;2.91;75.85254;95269.14;;;;
2019/05/06 03:29:50;;;;;;;11.3;9.999999;;;;;;;3.01;75.83887;95282.06;;;;
2019/05/06 03:30:51;;;;;;;11.3;9.999999;;;;;;;3.01;75.83887;95282.06;;;;
2019/05/06 03:31:52;;;;;;;11.3;9.999999;;;;;;;3.01;75.83887;95282.06;;;;
2019/05/06 03:32:53;;;;;;;11.3;9.999999;;;;;;;3.01;75.83887;95282.06;;;;
2019/05/06 03:33:54;;;;;;;11.3;9.999999;;;;;;;3.01;75.83887;95282.06;;;;
2019/05/06 03:34:55;;;;;;;11.3;9.999999;;;;;;;3.01;75.83887;95282.06;;;;
2019/05/06 03:35:56;;;;;;;11.3;9.999999;;;;;;;3.01;75.83887;95282.06;;;;
2019/05/06 03:36:57;;;;;;;11.3;9.999999;;;;;;;3.01;75.83887;95282.06;;;;
2019/05/06 03:37:58;;;;;;;11.3;9.999999;;;;;;;3.01;75.83887;95282.06;;;;
2019/05/06 03:38:59;;;;;;;11.3;9.999999;;;;;;;3.01;75.83887;95282.06;;;;
2019/05/06 03:40:00;;;;;;;12.4;10.9;;;;;;;3.02;75.9248;95282.81;;;;
2019/05/06 03:41:02;;;;;;;12.4;10.9;;;;;;;3.02;75.9248;95282.81;;;;
2019/05/06 03:42:03;;;;;;;12.4;10.9;;;;;;;3.02;75.9248;95282.81;;;;
2019/05/06 03:43:04;;;;;;;12.4;10.9;;;;;;;3.02;75.9248;95282.81;;;;
2019/05/06 03:44:05;;;;;;;12.4;10.9;;;;;;;3.02;75.9248;95282.81;;;;
2019/05/06 03:45:14;;;;;;;12.4;10.9;;;;;;;3.02;75.9248;95282.81;;;;
2019/05/06 03:46:31;;;;;;;12.4;10.9;;;;;;;3.02;75.9248;95282.81;;;;
2019/05/06 03:47:52;;;;;;;12.4;10.9;;;;;;;3.02;75.9248;95282.81;;;;
2019/05/06 03:48:57;;;;;;;12.4;10.9;;;;;;;3.02;75.9248;95282.81;;;;
2019/05/06 03:49:58;;;;;;;12.4;10.9;;;;;;;3.02;75.9248;95282.81;;;;
2019/05/06 03:50:59;;;;;;;12.5;11.2;;;;;;;3.08;76.02051;95286.45;;;;
2019/05/06 03:52:00;;;;;;;12.5;11.2;;;;;;;3.08;76.02051;95286.45;;;;
2019/05/06 03:53:01;;;;;;;12.5;11.2;;;;;;;3.08;76.02051;95286.45;;;;
2019/05/06 03:54:03;;;;;;;12.5;11.2;;;;;;;3.08;76.02051;95286.45;;;;
2019/05/06 03:55:04;;;;;;;12.5;11.2;;;;;;;3.08;76.02051;95286.45;;;;
2019/05/06 03:56:05;;;;;;;12.5;11.2;;;;;;;3.08;76.02051;95286.45;;;;
2019/05/06 03:57:06;;;;;;;12.5;11.2;;;;;;;3.08;76.02051;95286.45;;;;
2019/05/06 03:58:07;;;;;;;12.5;11.2;;;;;;;3.08;76.02051;95286.45;;;;
2019/05/06 03:59:08;;;;;;;12.5;11.2;;;;;;;3.08;76.02051;95286.45;;;;
2019/05/06 04:00:11;;;;;;;12.5;11.2;;;;;;;3.08;76.02051;95286.45;;;;
2019/05/06 04:01:12;;;;;;;13.5;10.95;;;;;;;3.07;76.17676;95298.16;;;;
2019/05/06 04:02:13;;;;;;;13.5;10.95;;;;;;;3.07;76.17676;95298.16;;;;
2019/05/06 04:03:14;;;;;;;13.5;10.95;;;;;;;3.07;76.17676;95298.16;;;;
2019/05/06 04:04:15;;;;;;;13.5;10.95;;;;;;;3.07;76.17676;95298.16;;;;
2019/05/06 04:05:16;;;;;;;13.5;10.95;;;;;;;3.07;76.17676;95298.16;;;;
2019/05/06 04:06:17;;;;;;;13.5;10.95;;;;;;;3.07;76.17676;95298.16;;;;
2019/05/06 04:07:19;;;;;;;13.5;10.95;;;;;;;3.07;76.17676;95298.16;;;;
2019/05/06 04:08:20;;;;;;;13.5;10.95;;;;;;;3.07;76.17676;95298.16;;;;
2019/05/06 04:09:21;;;;;;;13.5;10.95;;;;;;;3.07;76.17676;95298.16;;;;
2019/05/06 04:10:22;;;;;;;13.5;10.95;;;;;;;3.07;76.17676;95298.16;;;;
2019/05/06 04:11:23;;;;;;;13.5;10.95;;;;;;;3.07;76.17676;95298.16;;;;
2019/05/06 04:12:24;;;;;;;15.15;11.5;;;;;;;3.17;76.10938;95307.15;;;;
2019/05/06 04:13:26;;;;;;;15.15;11.5;;;;;;;3.17;76.10938;95307.15;;;;
2019/05/06 04:14:27;;;;;;;15.15;11.5;;;;;;;3.17;76.10938;95307.15;;;;
2019/05/06 04:15:50;;;;;;;15.15;11.5;;;;;;;3.17;76.10938;95307.15;;;;
2019/05/06 04:16:59;;;;;;;15.15;11.5;;;;;;;3.17;76.10938;95307.15;;;;
2019/05/06 04:18:05;;;;;;;15.15;11.5;;;;;;;3.17;76.10938;95307.15;;;;
2019/05/06 04:19:10;;;;;;;15.15;11.5;;;;;;;3.17;76.10938;95307.15;;;;
2019/05/06 04:20:17;;;;;;;15.15;11.5;;;;;;;3.17;76.10938;95307.15;;;;
2019/05/06 04:21:29;;;;;;;15.15;11.5;;;;;;;3.17;76.10938;95307.15;;;;
2019/05/06 04:22:41;;;;;;;12.95;10.8;;;;;;;3.19;76.12305;95315.8;;;;
2019/05/06 04:23:50;;;;;;;12.95;10.8;;;;;;;3.19;76.12305;95315.8;;;;
2019/05/06 04:26:00;;;;;;;12.95;10.8;;;;;;;3.19;76.12305;95315.8;;;;
2019/05/06 04:27:06;;;;;;;12.95;10.8;;;;;;;3.19;76.12305;95315.8;;;;
2019/05/06 04:28:38;;;;;;;12.95;10.8;;;;;;;3.19;76.12305;95315.8;;;;
2019/05/06 04:29:39;;;;;;;12.95;10.8;;;;;;;3.19;76.12305;95315.8;;;;
2019/05/06 04:30:40;;;;;;;12.95;10.8;;;;;;;3.19;76.12305;95315.8;;;;
2019/05/06 04:31:42;;;;;;;12.95;10.8;;;;;;;3.19;76.12305;95315.8;;;;
2019/05/06 04:32:43;;;;;;;12.95;10.8;;;;;;;3.19;76.12305;95315.8;;;;
2019/05/06 04:33:44;;;;;;;11.95;10.3;;;;;;;3.26;76.17871;95328.69;;;;
2019/05/06 04:34:45;;;;;;;11.95;10.3;;;;;;;3.26;76.17871;95328.69;;;;
2019/05/06 04:35:46;;;;;;;11.95;10.3;;;;;;;3.26;76.17871;95328.69;;;;
2019/05/06 04:36:47;;;;;;;11.95;10.3;;;;;;;3.26;76.17871;95328.69;;;;
2019/05/06 04:37:48;;;;;;;11.95;10.3;;;;;;;3.26;76.17871;95328.69;;;;
2019/05/06 04:38:49;;;;;;;11.95;10.3;;;;;;;3.26;76.17871;95328.69;;;;
2019/05/06 04:39:50;;;;;;;11.95;10.3;;;;;;;3.26;76.17871;95328.69;;;;
2019/05/06 04:40:51;;;;;;;11.95;10.3;;;;;;;3.26;76.17871;95328.69;;;;
2019/05/06 04:41:52;;;;;;;11.95;10.3;;;;;;;3.26;76.17871;95328.69;;;;
2019/05/06 04:42:53;;;;;;;11.95;10.3;;;;;;;3.26;76.17871;95328.69;;;;
2019/05/06 04:43:54;;;;;;;11.4;9.4;;;;;;;3.32;76.18848;95324.36;;;;
2019/05/06 04:44:55;;;;;;;11.4;9.4;;;;;;;3.32;76.18848;95324.36;;;;
2019/05/06 04:45:56;;;;;;;11.4;9.4;;;;;;;3.32;76.18848;95324.36;;;;
2019/05/06 04:46:57;;;;;;;11.4;9.4;;;;;;;3.32;76.18848;95324.36;;;;
2019/05/06 04:47:59;;;;;;;11.4;9.4;;;;;;;3.32;76.18848;95324.36;;;;
2019/05/06 04:49:00;;;;;;;11.4;9.4;;;;;;;3.32;76.18848;95324.36;;;;
2019/05/06 04:50:01;;;;;;;11.4;9.4;;;;;;;3.32;76.18848;95324.36;;;;
2019/05/06 04:51:02;;;;;;;11.4;9.4;;;;;;;3.32;76.18848;95324.36;;;;
2019/05/06 04:52:03;;;;;;;11.4;9.4;;;;;;;3.32;76.18848;95324.36;;;;
2019/05/06 04:53:04;;;;;;;11.4;9.4;;;;;;;3.32;76.18848;95324.36;;;;
2019/05/06 04:54:05;;;;;;;10.4;8.65;;;;;;;3.5;75.92578;95336.83;;;;
2019/05/06 04:55:06;;;;;;;10.4;8.65;;;;;;;3.5;75.92578;95336.83;;;;
2019/05/06 04:56:07;;;;;;;10.4;8.65;;;;;;;3.5;75.92578;95336.83;;;;
2019/05/06 04:57:08;;;;;;;10.4;8.65;;;;;;;3.5;75.92578;95336.83;;;;
2019/05/06 04:58:09;;;;;;;10.4;8.65;;;;;;;3.5;75.92578;95336.83;;;;
2019/05/06 04:59:10;;;;;;;10.4;8.65;;;;;;;3.5;75.92578;95336.83;;;;
2019/05/06 05:00:11;;;;;;;10.4;8.65;;;;;;;3.5;75.92578;95336.83;;;;
2019/05/06 05:01:12;;;;;;;10.4;8.65;;;;;;;3.5;75.92578;95336.83;;;;
2019/05/06 05:02:13;;;;;;;10.4;8.65;;;;;;;3.5;75.92578;95336.83;;;;
2019/05/06 05:03:15;;;;;;;10.4;8.65;;;;;;;3.5;75.92578;95336.83;;;;
2019/05/06 05:04:16;;;;;;;10.4;8.65;;;;;;;3.5;75.92578;95336.83;;;;
2019/05/06 05:05:17;;;;;;;10.4;8.65;;;;;;;3.5;75.92578;95336.83;;;;
2019/05/06 05:06:18;;;;;;;10.4;8.65;;;;;;;3.5;75.92578;95336.83;;;;
2019/05/06 05:07:19;;;;;;;10.4;8.65;;;;;;;3.5;75.92578;95336.83;;;;
2019/05/06 05:08:34;;;;;;;10.4;8.65;;;;;;;3.5;75.92578;95336.83;;;;
2019/05/06 05:09:36;;;;;;;10.4;8.65;;;;;;;3.5;75.92578;95336.83;;;;
2019/05/06 05:10:45;;;;;;;10.4;8.65;;;;;;;3.5;75.92578;95336.83;;;;
2019/05/06 05:11:57;;;;;;;10.4;8.65;;;;;;;3.5;75.92578;95336.83;;;;
2019/05/06 05:13:03;;;;;;;10.4;8.65;;;;;;;3.5;75.92578;95336.83;;;;
2019/05/06 05:14:42;;;;;;;10.4;8.65;;;;;;;3.5;75.92578;95336.83;;;;
2019/05/06 05:16:21;;;;;;;8.95;7.849999;;;;;;;4.14;74.94336;95349.47;;;;
2019/05/06 05:17:30;;;;;;;8.95;7.849999;;;;;;;4.14;74.94336;95349.47;;;;
2019/05/06 05:18:36;;;;;;;8.95;7.849999;;;;;;;4.14;74.94336;95349.47;;;;
2019/05/06 05:19:37;;;;;;;8.95;7.849999;;;;;;;4.14;74.94336;95349.47;;;;
2019/05/06 05:20:38;;;;;;;8.95;7.849999;;;;;;;4.14;74.94336;95349.47;;;;
2019/05/06 05:21:39;;;;;;;8.95;7.849999;;;;;;;4.14;74.94336;95349.47;;;;
2019/05/06 05:22:40;;;;;;;8.95;7.849999;;;;;;;4.14;74.94336;95349.47;;;;
2019/05/06 05:23:41;;;;;;;8.95;7.849999;;;;;;;4.14;74.94336;95349.47;;;;
2019/05/06 05:24:42;;;;;;;8.95;7.849999;;;;;;;4.14;74.94336;95349.47;;;;
2019/05/06 05:25:43;;;;;;;8.95;7.849999;;;;;;;4.14;74.94336;95349.47;;;;
2019/05/06 05:26:44;;;;;;;9;7.299999;;;;;;;4.36;74.69727;95356;;;;
2019/05/06 05:27:45;;;;;;;9;7.299999;;;;;;;4.36;74.69727;95356;;;;
2019/05/06 05:28:46;;;;;;;9;7.299999;;;;;;;4.36;74.69727;95356;;;;
2019/05/06 05:29:48;;;;;;;9;7.299999;;;;;;;4.36;74.69727;95356;;;;
2019/05/06 05:30:49;;;;;;;9;7.299999;;;;;;;4.36;74.69727;95356;;;;
2019/05/06 05:31:50;;;;;;;9;7.299999;;;;;;;4.36;74.69727;95356;;;;
2019/05/06 05:32:51;;;;;;;9;7.299999;;;;;;;4.36;74.69727;95356;;;;
2019/05/06 05:33:52;;;;;;;9;7.299999;;;;;;;4.36;74.69727;95356;;;;
2019/05/06 05:34:53;;;;;;;9;7.299999;;;;;;;4.36;74.69727;95356;;;;
2019/05/06 05:35:54;;;;;;;9;7.299999;;;;;;;4.36;74.69727;95356;;;;
2019/05/06 05:36:55;;;;;;;8.200001;7;;;;;;;4.66;74.19922;95363.28;;;;
2019/05/06 05:37:56;;;;;;;8.200001;7;;;;;;;4.66;74.19922;95363.28;;;;
2019/05/06 05:38:57;;;;;;;8.200001;7;;;;;;;4.66;74.19922;95363.28;;;;
2019/05/06 05:39:59;;;;;;;8.200001;7;;;;;;;4.66;74.19922;95363.28;;;;
2019/05/06 05:41:00;;;;;;;8.200001;7;;;;;;;4.66;74.19922;95363.28;;;;
2019/05/06 05:42:12;;;;;;;8.200001;7;;;;;;;4.66;74.19922;95363.28;;;;
2019/05/06 05:43:33;;;;;;;8.200001;7;;;;;;;4.66;74.19922;95363.28;;;;
2019/05/06 05:44:37;;;;;;;8.200001;7;;;;;;;4.66;74.19922;95363.28;;;;
2019/05/06 05:45:38;;;;;;;8.200001;7;;;;;;;4.66;74.19922;95363.28;;;;
2019/05/06 05:46:39;;;;;;;8.200001;7;;;;;;;4.66;74.19922;95363.28;;;;
2019/05/06 05:47:40;;;;;;;8.350001;6.55;;;;;;;4.95;73.73242;95365.16;;;;
2019/05/06 05:48:56;;;;;;;8.350001;6.55;;;;;;;4.95;73.73242;95365.16;;;;
2019/05/06 05:50:32;;;;;;;8.350001;6.55;;;;;;;4.95;73.73242;95365.16;;;;
2019/05/06 05:51:34;;;;;;;8.350001;6.55;;;;;;;4.95;73.73242;95365.16;;;;
2019/05/06 05:52:35;;;;;;;8.350001;6.55;;;;;;;4.95;73.73242;95365.16;;;;
2019/05/06 05:53:36;;;;;;;8.350001;6.55;;;;;;;4.95;73.73242;95365.16;;;;
2019/05/06 05:54:37;;;;;;;8.350001;6.55;;;;;;;4.95;73.73242;95365.16;;;;
2019/05/06 05:55:38;;;;;;;8.350001;6.55;;;;;;;4.95;73.73242;95365.16;;;;
2019/05/06 05:56:39;;;;;;;8.350001;6.55;;;;;;;4.95;73.73242;95365.16;;;;
2019/05/06 05:57:40;;;;;;;8.350001;6.55;;;;;;;4.95;73.73242;95365.16;;;;
2019/05/06 05:58:41;;;;;;;9.449999;5.8;;;;;;;5.43;73.26465;95375.33;;;;
2019/05/06 05:59:42;;;;;;;9.449999;5.8;;;;;;;5.43;73.26465;95375.33;;;;
2019/05/06 06:00:43;;;;;;;9.449999;5.8;;;;;;;5.43;73.26465;95375.33;;;;
2019/05/06 06:01:45;;;;;;;9.449999;5.8;;;;;;;5.43;73.26465;95375.33;;;;
2019/05/06 06:02:46;;;;;;;9.449999;5.8;;;;;;;5.43;73.26465;95375.33;;;;
2019/05/06 06:03:47;;;;;;;9.449999;5.8;;;;;;;5.43;73.26465;95375.33;;;;
2019/05/06 06:04:48;;;;;;;9.449999;5.8;;;;;;;5.43;73.26465;95375.33;;;;